sensor_id;sensor_type;location;lat;lon;timestamp;pressure;altitude;pressure_sealevel;temperature;humidity
8286;BME280;4181;43.416;24.598;2023-12-20T00:00:16;100368.38;;;6.25;100.00
8286;BME280;4181;43.416;24.598;2023-12-20T00:02:41;100372.44;;;6.41;100.00
8286;BME280;4181;43.416;24.598;2023-12-20T00:05:12;100366.78;;;6.49;100.00
8286;BME280;4181;43.416;24.598;2023-12-20T00:07:38;100363.84;;;6.51;100.00
8286;BME280;4181;43.416;24.598;2023-12-20T00:10:03;100348.03;;;6.41;100.00
8286;BME280;4181;43.416;24.598;2023-12-20T00:12:29;100363.00;;;6.50;100.00
8286;BME280;4181;43.416;24.598;2023-12-20T00:14:54;100361.34;;;6.49;100.00
8286;BME280;4181;43.416;24.598;2023-12-20T00:17:19;100356.16;;;6.41;100.00
8286;BME280;4181;43.416;24.598;2023-12-20T00:19:45;100355.97;;;6.43;100.00
8286;BME280;4181;43.416;24.598;2023-12-20T00:22:10;100356.34;;;6.46;100.00
8286;BME280;4181;43.416;24.598;2023-12-20T00:24:36;100352.66;;;6.40;100.00
8286;BME280;4181;43.416;24.598;2023-12-20T00:27:01;100356.84;;;6.36;100.00
8286;BME280;4181;43.416;24.598;2023-12-20T00:29:27;100359.38;;;6.31;100.00
8286;BME280;4181;43.416;24.598;2023-12-20T00:31:53;100358.84;;;6.16;100.00
8286;BME280;4181;43.416;24.598;2023-12-20T00:34:18;100352.41;;;6.11;100.00
8286;BME280;4181;43.416;24.598;2023-12-20T00:36:43;100329.19;;;5.90;100.00
8286;BME280;4181;43.416;24.598;2023-12-20T00:39:09;100332.53;;;5.79;100.00
8286;BME280;4181;43.416;24.598;2023-12-20T00:41:34;100333.81;;;5.83;100.00
8286;BME280;4181;43.416;24.598;2023-12-20T00:44:00;100336.09;;;5.86;100.00
8286;BME280;4181;43.416;24.598;2023-12-20T00:46:25;100327.56;;;5.83;100.00
8286;BME280;4181;43.416;24.598;2023-12-20T00:48:50;100331.81;;;5.53;100.00
8286;BME280;4181;43.416;24.598;2023-12-20T00:51:16;100331.97;;;5.64;100.00
8286;BME280;4181;43.416;24.598;2023-12-20T00:53:41;100325.09;;;5.68;100.00
8286;BME280;4181;43.416;24.598;2023-12-20T00:56:08;100321.81;;;5.60;100.00
8286;BME280;4181;43.416;24.598;2023-12-20T00:58:33;100323.47;;;5.54;100.00
8286;BME280;4181;43.416;24.598;2023-12-20T01:00:59;100311.38;;;5.63;100.00
8286;BME280;4181;43.416;24.598;2023-12-20T01:03:24;100305.41;;;5.48;100.00
8286;BME280;4181;43.416;24.598;2023-12-20T01:05:50;100308.81;;;5.24;100.00
8286;BME280;4181;43.416;24.598;2023-12-20T01:08:15;100301.56;;;5.18;100.00
8286;BME280;4181;43.416;24.598;2023-12-20T01:10:41;100296.16;;;5.18;100.00
8286;BME280;4181;43.416;24.598;2023-12-20T01:13:06;100291.16;;;5.15;100.00
8286;BME280;4181;43.416;24.598;2023-12-20T01:15:32;100287.81;;;5.19;100.00
8286;BME280;4181;43.416;24.598;2023-12-20T01:17:57;100283.81;;;5.35;100.00
8286;BME280;4181;43.416;24.598;2023-12-20T01:20:24;100281.28;;;5.47;100.00
8286;BME280;4181;43.416;24.598;2023-12-20T01:22:50;100267.09;;;5.51;100.00
8286;BME280;4181;43.416;24.598;2023-12-20T01:25:16;100267.63;;;5.29;100.00
8286;BME280;4181;43.416;24.598;2023-12-20T01:27:41;100274.56;;;5.05;100.00
8286;BME280;4181;43.416;24.598;2023-12-20T01:30:07;100275.63;;;4.91;100.00
8286;BME280;4181;43.416;24.598;2023-12-20T01:32:33;100260.19;;;5.11;100.00
8286;BME280;4181;43.416;24.598;2023-12-20T01:34:58;100258.03;;;5.26;100.00
8286;BME280;4181;43.416;24.598;2023-12-20T01:37:23;100259.59;;;5.09;100.00
8286;BME280;4181;43.416;24.598;2023-12-20T01:39:50;100241.69;;;5.01;100.00
8286;BME280;4181;43.416;24.598;2023-12-20T01:42:16;100248.69;;;5.29;100.00
8286;BME280;4181;43.416;24.598;2023-12-20T01:44:41;100237.28;;;5.20;100.00
8286;BME280;4181;43.416;24.598;2023-12-20T01:47:07;100231.44;;;5.23;100.00
8286;BME280;4181;43.416;24.598;2023-12-20T01:49:33;100229.97;;;5.27;100.00
8286;BME280;4181;43.416;24.598;2023-12-20T01:51:59;100215.34;;;5.35;100.00
8286;BME280;4181;43.416;24.598;2023-12-20T01:54:25;100225.69;;;5.51;100.00
8286;BME280;4181;43.416;24.598;2023-12-20T01:56:50;100228.59;;;5.49;100.00
8286;BME280;4181;43.416;24.598;2023-12-20T01:59:18;100227.38;;;5.45;100.00
8286;BME280;4181;43.416;24.598;2023-12-20T02:01:44;100218.03;;;5.41;100.00
8286;BME280;4181;43.416;24.598;2023-12-20T02:04:10;100214.09;;;5.37;100.00
8286;BME280;4181;43.416;24.598;2023-12-20T02:06:36;100212.75;;;5.53;100.00
8286;BME280;4181;43.416;24.598;2023-12-20T02:09:05;100199.16;;;5.28;100.00
8286;BME280;4181;43.416;24.598;2023-12-20T02:11:30;100206.94;;;5.49;100.00
8286;BME280;4181;43.416;24.598;2023-12-20T02:13:56;100201.16;;;5.46;100.00
8286;BME280;4181;43.416;24.598;2023-12-20T02:16:22;100193.19;;;5.57;100.00
8286;BME280;4181;43.416;24.598;2023-12-20T02:18:47;100178.78;;;5.63;100.00
8286;BME280;4181;43.416;24.598;2023-12-20T02:21:13;100181.03;;;5.66;100.00
8286;BME280;4181;43.416;24.598;2023-12-20T02:23:38;100181.75;;;5.86;100.00
8286;BME280;4181;43.416;24.598;2023-12-20T02:26:04;100188.78;;;5.94;100.00
8286;BME280;4181;43.416;24.598;2023-12-20T02:28:30;100182.03;;;5.72;100.00
8286;BME280;4181;43.416;24.598;2023-12-20T02:30:57;100172.06;;;5.72;100.00
8286;BME280;4181;43.416;24.598;2023-12-20T02:33:22;100190.22;;;5.65;100.00
8286;BME280;4181;43.416;24.598;2023-12-20T02:35:48;100175.78;;;5.71;100.00
8286;BME280;4181;43.416;24.598;2023-12-20T02:38:13;100181.47;;;5.63;100.00
8286;BME280;4181;43.416;24.598;2023-12-20T02:40:39;100188.94;;;5.68;100.00
8286;BME280;4181;43.416;24.598;2023-12-20T02:43:04;100177.72;;;5.64;100.00
8286;BME280;4181;43.416;24.598;2023-12-20T02:45:30;100182.34;;;5.57;100.00
8286;BME280;4181;43.416;24.598;2023-12-20T02:47:55;100180.06;;;5.61;100.00
8286;BME280;4181;43.416;24.598;2023-12-20T02:50:21;100175.78;;;5.40;100.00
8286;BME280;4181;43.416;24.598;2023-12-20T02:52:47;100165.22;;;5.32;100.00
8286;BME280;4181;43.416;24.598;2023-12-20T02:55:12;100177.25;;;5.36;100.00
8286;BME280;4181;43.416;24.598;2023-12-20T02:57:38;100172.09;;;5.28;100.00
8286;BME280;4181;43.416;24.598;2023-12-20T03:00:10;100176.94;;;5.19;100.00
8286;BME280;4181;43.416;24.598;2023-12-20T03:02:36;100162.59;;;5.12;100.00
8286;BME280;4181;43.416;24.598;2023-12-20T03:05:02;100147.84;;;5.15;100.00
8286;BME280;4181;43.416;24.598;2023-12-20T03:07:27;100146.19;;;5.07;100.00
8286;BME280;4181;43.416;24.598;2023-12-20T03:09:53;100140.13;;;5.18;100.00
8286;BME280;4181;43.416;24.598;2023-12-20T03:12:18;100121.50;;;4.97;100.00
8286;BME280;4181;43.416;24.598;2023-12-20T03:14:44;100136.28;;;4.95;100.00
8286;BME280;4181;43.416;24.598;2023-12-20T03:17:10;100145.31;;;4.76;100.00
8286;BME280;4181;43.416;24.598;2023-12-20T03:19:35;100145.88;;;4.91;100.00
8286;BME280;4181;43.416;24.598;2023-12-20T03:22:01;100130.25;;;4.93;100.00
8286;BME280;4181;43.416;24.598;2023-12-20T03:24:26;100122.09;;;5.06;100.00
8286;BME280;4181;43.416;24.598;2023-12-20T03:26:53;100136.50;;;4.93;100.00
8286;BME280;4181;43.416;24.598;2023-12-20T03:29:18;100133.19;;;4.91;100.00
8286;BME280;4181;43.416;24.598;2023-12-20T03:31:43;100126.34;;;4.82;100.00
8286;BME280;4181;43.416;24.598;2023-12-20T03:34:09;100123.28;;;4.79;100.00
8286;BME280;4181;43.416;24.598;2023-12-20T03:36:34;100126.34;;;4.82;100.00
8286;BME280;4181;43.416;24.598;2023-12-20T03:39:00;100130.28;;;4.86;100.00
8286;BME280;4181;43.416;24.598;2023-12-20T03:41:25;100123.44;;;4.90;100.00
8286;BME280;4181;43.416;24.598;2023-12-20T03:43:51;100117.38;;;4.95;100.00
8286;BME280;4181;43.416;24.598;2023-12-20T03:46:16;100113.78;;;5.01;100.00
8286;BME280;4181;43.416;24.598;2023-12-20T03:48:41;100110.06;;;5.02;100.00
8286;BME280;4181;43.416;24.598;2023-12-20T03:51:07;100110.31;;;4.94;100.00
8286;BME280;4181;43.416;24.598;2023-12-20T03:53:32;100101.84;;;4.77;100.00
8286;BME280;4181;43.416;24.598;2023-12-20T03:55:58;100103.13;;;4.75;100.00
8286;BME280;4181;43.416;24.598;2023-12-20T03:58:24;100094.53;;;4.84;100.00
8286;BME280;4181;43.416;24.598;2023-12-20T04:00:49;100083.38;;;4.68;100.00
8286;BME280;4181;43.416;24.598;2023-12-20T04:03:15;100094.81;;;4.70;100.00
8286;BME280;4181;43.416;24.598;2023-12-20T04:05:40;100089.22;;;4.65;100.00
8286;BME280;4181;43.416;24.598;2023-12-20T04:08:07;100098.56;;;4.69;100.00
8286;BME280;4181;43.416;24.598;2023-12-20T04:10:33;100087.75;;;4.62;100.00
8286;BME280;4181;43.416;24.598;2023-12-20T04:12:58;100087.97;;;4.67;100.00
8286;BME280;4181;43.416;24.598;2023-12-20T04:15:24;100059.41;;;4.40;100.00
8286;BME280;4181;43.416;24.598;2023-12-20T04:17:49;100087.22;;;4.54;100.00
8286;BME280;4181;43.416;24.598;2023-12-20T04:20:15;100076.38;;;4.60;100.00
8286;BME280;4181;43.416;24.598;2023-12-20T04:22:40;100072.63;;;4.61;100.00
8286;BME280;4181;43.416;24.598;2023-12-20T04:25:07;100066.81;;;4.58;100.00
8286;BME280;4181;43.416;24.598;2023-12-20T04:27:33;100065.78;;;4.59;100.00
8286;BME280;4181;43.416;24.598;2023-12-20T04:29:58;100063.91;;;4.53;100.00
8286;BME280;4181;43.416;24.598;2023-12-20T04:32:24;100057.56;;;4.28;100.00
8286;BME280;4181;43.416;24.598;2023-12-20T04:34:49;100071.06;;;4.28;100.00
8286;BME280;4181;43.416;24.598;2023-12-20T04:37:15;100046.97;;;4.33;100.00
8286;BME280;4181;43.416;24.598;2023-12-20T04:39:41;100055.66;;;4.41;100.00
8286;BME280;4181;43.416;24.598;2023-12-20T04:42:06;100055.94;;;4.20;100.00
8286;BME280;4181;43.416;24.598;2023-12-20T04:44:32;100063.63;;;4.17;100.00
8286;BME280;4181;43.416;24.598;2023-12-20T04:46:58;100068.59;;;4.26;100.00
8286;BME280;4181;43.416;24.598;2023-12-20T04:49:23;100058.22;;;4.23;100.00
8286;BME280;4181;43.416;24.598;2023-12-20T04:51:48;100049.47;;;4.28;100.00
8286;BME280;4181;43.416;24.598;2023-12-20T04:54:14;100045.31;;;4.32;100.00
8286;BME280;4181;43.416;24.598;2023-12-20T04:56:40;100038.84;;;4.33;100.00
8286;BME280;4181;43.416;24.598;2023-12-20T04:59:05;100026.22;;;4.27;100.00
8286;BME280;4181;43.416;24.598;2023-12-20T05:01:31;100035.19;;;4.08;100.00
8286;BME280;4181;43.416;24.598;2023-12-20T05:03:56;100037.72;;;3.89;100.00
8286;BME280;4181;43.416;24.598;2023-12-20T05:06:22;100024.91;;;3.78;100.00
8286;BME280;4181;43.416;24.598;2023-12-20T05:08:47;100031.09;;;3.92;100.00
8286;BME280;4181;43.416;24.598;2023-12-20T05:11:13;100035.00;;;4.03;100.00
8286;BME280;4181;43.416;24.598;2023-12-20T05:13:39;100037.28;;;4.06;100.00
8286;BME280;4181;43.416;24.598;2023-12-20T05:16:05;100037.06;;;4.14;100.00
8286;BME280;4181;43.416;24.598;2023-12-20T05:18:31;100036.19;;;4.20;100.00
8286;BME280;4181;43.416;24.598;2023-12-20T05:20:56;100043.69;;;4.11;100.00
8286;BME280;4181;43.416;24.598;2023-12-20T05:23:22;100029.34;;;4.24;100.00
8286;BME280;4181;43.416;24.598;2023-12-20T05:25:47;100031.53;;;4.46;100.00
8286;BME280;4181;43.416;24.598;2023-12-20T05:28:13;100029.63;;;4.53;100.00
8286;BME280;4181;43.416;24.598;2023-12-20T05:30:38;100023.13;;;4.61;100.00
8286;BME280;4181;43.416;24.598;2023-12-20T05:33:04;100024.38;;;4.65;100.00
8286;BME280;4181;43.416;24.598;2023-12-20T05:35:29;100041.84;;;4.69;100.00
8286;BME280;4181;43.416;24.598;2023-12-20T05:37:55;100028.31;;;4.62;100.00
8286;BME280;4181;43.416;24.598;2023-12-20T05:40:20;100022.38;;;4.54;100.00
8286;BME280;4181;43.416;24.598;2023-12-20T05:42:45;100021.13;;;4.50;100.00
8286;BME280;4181;43.416;24.598;2023-12-20T05:45:11;100028.16;;;4.07;100.00
8286;BME280;4181;43.416;24.598;2023-12-20T05:47:36;100023.78;;;4.06;100.00
8286;BME280;4181;43.416;24.598;2023-12-20T05:50:05;100023.41;;;3.89;100.00
8286;BME280;4181;43.416;24.598;2023-12-20T05:52:30;100023.63;;;3.87;100.00
8286;BME280;4181;43.416;24.598;2023-12-20T05:54:56;100009.69;;;4.04;100.00
8286;BME280;4181;43.416;24.598;2023-12-20T05:57:23;100015.44;;;4.20;100.00
8286;BME280;4181;43.416;24.598;2023-12-20T05:59:48;100009.34;;;4.38;100.00
8286;BME280;4181;43.416;24.598;2023-12-20T06:02:14;99989.50;;;4.57;100.00
8286;BME280;4181;43.416;24.598;2023-12-20T06:04:42;100004.06;;;4.93;100.00
8286;BME280;4181;43.416;24.598;2023-12-20T06:07:08;100008.81;;;5.22;100.00
8286;BME280;4181;43.416;24.598;2023-12-20T06:09:36;99996.84;;;5.37;100.00
8286;BME280;4181;43.416;24.598;2023-12-20T06:12:02;99995.31;;;5.47;100.00
8286;BME280;4181;43.416;24.598;2023-12-20T06:14:27;100007.00;;;5.41;100.00
8286;BME280;4181;43.416;24.598;2023-12-20T06:16:53;100010.09;;;5.45;100.00
8286;BME280;4181;43.416;24.598;2023-12-20T06:19:19;100014.16;;;5.29;100.00
8286;BME280;4181;43.416;24.598;2023-12-20T06:21:44;100008.59;;;5.24;100.00
8286;BME280;4181;43.416;24.598;2023-12-20T06:24:12;100010.38;;;5.12;100.00
8286;BME280;4181;43.416;24.598;2023-12-20T06:26:38;99998.16;;;5.03;100.00
8286;BME280;4181;43.416;24.598;2023-12-20T06:29:03;100012.19;;;4.87;100.00
8286;BME280;4181;43.416;24.598;2023-12-20T06:31:29;99999.13;;;4.84;100.00
8286;BME280;4181;43.416;24.598;2023-12-20T06:33:54;100000.50;;;4.93;100.00
8286;BME280;4181;43.416;24.598;2023-12-20T06:36:23;100001.91;;;5.02;100.00
8286;BME280;4181;43.416;24.598;2023-12-20T06:38:49;100002.09;;;5.07;100.00
8286;BME280;4181;43.416;24.598;2023-12-20T06:41:15;100002.13;;;5.00;100.00
8286;BME280;4181;43.416;24.598;2023-12-20T06:43:42;99990.31;;;4.95;100.00
8286;BME280;4181;43.416;24.598;2023-12-20T06:46:07;100001.63;;;5.10;100.00
8286;BME280;4181;43.416;24.598;2023-12-20T06:48:34;99991.44;;;5.12;100.00
8286;BME280;4181;43.416;24.598;2023-12-20T06:51:00;99986.38;;;5.22;100.00
8286;BME280;4181;43.416;24.598;2023-12-20T06:53:27;99993.88;;;5.20;100.00
8286;BME280;4181;43.416;24.598;2023-12-20T06:55:52;99979.50;;;5.19;100.00
8286;BME280;4181;43.416;24.598;2023-12-20T06:58:18;99978.38;;;5.34;100.00
8286;BME280;4181;43.416;24.598;2023-12-20T07:00:44;99978.34;;;5.58;100.00
8286;BME280;4181;43.416;24.598;2023-12-20T07:03:09;99964.91;;;5.70;100.00
8286;BME280;4181;43.416;24.598;2023-12-20T07:05:35;99965.16;;;5.86;100.00
8286;BME280;4181;43.416;24.598;2023-12-20T07:08:00;99967.50;;;5.83;100.00
8286;BME280;4181;43.416;24.598;2023-12-20T07:10:26;99966.38;;;5.90;100.00
8286;BME280;4181;43.416;24.598;2023-12-20T07:12:51;99965.53;;;5.90;100.00
8286;BME280;4181;43.416;24.598;2023-12-20T07:15:21;99951.16;;;5.89;100.00
8286;BME280;4181;43.416;24.598;2023-12-20T07:17:46;99961.03;;;6.02;100.00
8286;BME280;4181;43.416;24.598;2023-12-20T07:20:12;99963.44;;;6.10;100.00
8286;BME280;4181;43.416;24.598;2023-12-20T07:22:37;99959.59;;;5.99;100.00
8286;BME280;4181;43.416;24.598;2023-12-20T07:25:03;99956.22;;;6.04;100.00
8286;BME280;4181;43.416;24.598;2023-12-20T07:27:29;99960.88;;;6.15;100.00
8286;BME280;4181;43.416;24.598;2023-12-20T07:29:54;99970.06;;;6.32;100.00
8286;BME280;4181;43.416;24.598;2023-12-20T07:32:19;99961.16;;;6.25;100.00
8286;BME280;4181;43.416;24.598;2023-12-20T07:34:45;99950.75;;;6.40;100.00
8286;BME280;4181;43.416;24.598;2023-12-20T07:37:10;99942.28;;;6.78;100.00
8286;BME280;4181;43.416;24.598;2023-12-20T07:39:38;99942.03;;;7.09;100.00
8286;BME280;4181;43.416;24.598;2023-12-20T07:42:05;99931.78;;;7.34;100.00
8286;BME280;4181;43.416;24.598;2023-12-20T07:44:30;99943.25;;;7.59;100.00
8286;BME280;4181;43.416;24.598;2023-12-20T07:46:56;99939.31;;;7.78;100.00
8286;BME280;4181;43.416;24.598;2023-12-20T07:49:23;99948.13;;;8.08;100.00
8286;BME280;4181;43.416;24.598;2023-12-20T07:51:48;99946.22;;;8.32;100.00
8286;BME280;4181;43.416;24.598;2023-12-20T07:54:15;99935.41;;;8.48;100.00
8286;BME280;4181;43.416;24.598;2023-12-20T07:56:41;99938.78;;;8.83;100.00
8286;BME280;4181;43.416;24.598;2023-12-20T07:59:07;99930.06;;;9.15;100.00
8286;BME280;4181;43.416;24.598;2023-12-20T08:01:32;99931.19;;;9.68;100.00
8286;BME280;4181;43.416;24.598;2023-12-20T08:03:57;99916.25;;;10.09;100.00
8286;BME280;4181;43.416;24.598;2023-12-20T08:06:23;99921.09;;;10.50;100.00
8286;BME280;4181;43.416;24.598;2023-12-20T08:08:48;99910.50;;;10.80;100.00
8286;BME280;4181;43.416;24.598;2023-12-20T08:11:14;99915.19;;;11.11;100.00
8286;BME280;4181;43.416;24.598;2023-12-20T08:13:39;99913.13;;;11.28;100.00
8286;BME280;4181;43.416;24.598;2023-12-20T08:16:05;99909.38;;;11.34;100.00
8286;BME280;4181;43.416;24.598;2023-12-20T08:18:34;99901.53;;;11.11;100.00
8286;BME280;4181;43.416;24.598;2023-12-20T08:21:00;99899.22;;;10.98;100.00
8286;BME280;4181;43.416;24.598;2023-12-20T08:23:27;99898.09;;;10.94;100.00
8286;BME280;4181;43.416;24.598;2023-12-20T08:25:52;99900.97;;;11.09;100.00
8286;BME280;4181;43.416;24.598;2023-12-20T08:28:18;99896.34;;;11.46;100.00
8286;BME280;4181;43.416;24.598;2023-12-20T08:30:43;99885.38;;;11.78;100.00
8286;BME280;4181;43.416;24.598;2023-12-20T08:33:09;99874.34;;;12.15;100.00
8286;BME280;4181;43.416;24.598;2023-12-20T08:35:40;99868.44;;;12.53;100.00
8286;BME280;4181;43.416;24.598;2023-12-20T08:38:06;99866.28;;;12.75;100.00
8286;BME280;4181;43.416;24.598;2023-12-20T08:40:32;99858.66;;;13.07;100.00
8286;BME280;4181;43.416;24.598;2023-12-20T08:42:57;99870.16;;;13.24;100.00
8286;BME280;4181;43.416;24.598;2023-12-20T08:45:26;99855.09;;;13.32;100.00
8286;BME280;4181;43.416;24.598;2023-12-20T08:47:51;99844.13;;;13.37;100.00
8286;BME280;4181;43.416;24.598;2023-12-20T08:50:17;99828.16;;;13.54;100.00
8286;BME280;4181;43.416;24.598;2023-12-20T08:52:43;99841.00;;;13.78;100.00
8286;BME280;4181;43.416;24.598;2023-12-20T08:55:11;99832.69;;;14.04;100.00
8286;BME280;4181;43.416;24.598;2023-12-20T08:57:38;99814.94;;;14.40;100.00
8286;BME280;4181;43.416;24.598;2023-12-20T09:00:04;99809.44;;;14.45;100.00
8286;BME280;4181;43.416;24.598;2023-12-20T09:02:30;99808.28;;;14.51;100.00
8286;BME280;4181;43.416;24.598;2023-12-20T09:04:55;99792.59;;;14.56;100.00
8286;BME280;4181;43.416;24.598;2023-12-20T09:07:27;99788.28;;;14.79;100.00
8286;BME280;4181;43.416;24.598;2023-12-20T09:09:54;99788.28;;;15.12;100.00
8286;BME280;4181;43.416;24.598;2023-12-20T09:12:20;99783.94;;;15.35;100.00
8286;BME280;4181;43.416;24.598;2023-12-20T09:14:50;99772.63;;;15.65;100.00
8286;BME280;4181;43.416;24.598;2023-12-20T09:17:16;99757.44;;;15.91;100.00
8286;BME280;4181;43.416;24.598;2023-12-20T09:19:43;99763.00;;;15.86;100.00
8286;BME280;4181;43.416;24.598;2023-12-20T09:22:12;99754.41;;;15.93;100.00
8286;BME280;4181;43.416;24.598;2023-12-20T09:24:38;99755.09;;;16.03;100.00
8286;BME280;4181;43.416;24.598;2023-12-20T09:27:06;99742.78;;;15.96;100.00
8286;BME280;4181;43.416;24.598;2023-12-20T09:29:32;99750.94;;;15.82;100.00
8286;BME280;4181;43.416;24.598;2023-12-20T09:31:57;99739.56;;;15.70;100.00
8286;BME280;4181;43.416;24.598;2023-12-20T09:34:23;99745.75;;;15.57;100.00
8286;BME280;4181;43.416;24.598;2023-12-20T09:36:49;99745.44;;;15.40;100.00
8286;BME280;4181;43.416;24.598;2023-12-20T09:39:16;99735.72;;;15.19;100.00
8286;BME280;4181;43.416;24.598;2023-12-20T09:41:45;99736.91;;;15.13;100.00
8286;BME280;4181;43.416;24.598;2023-12-20T09:44:16;99744.59;;;14.82;100.00
8286;BME280;4181;43.416;24.598;2023-12-20T09:46:49;99740.53;;;14.80;100.00
8286;BME280;4181;43.416;24.598;2023-12-20T09:49:16;99730.44;;;14.70;100.00
8286;BME280;4181;43.416;24.598;2023-12-20T09:51:42;99719.25;;;14.62;100.00
8286;BME280;4181;43.416;24.598;2023-12-20T09:54:09;99724.13;;;14.70;100.00
8286;BME280;4181;43.416;24.598;2023-12-20T09:56:35;99713.19;;;14.65;100.00
8286;BME280;4181;43.416;24.598;2023-12-20T09:59:02;99714.78;;;14.71;100.00
8286;BME280;4181;43.416;24.598;2023-12-20T10:01:28;99714.91;;;14.56;100.00
8286;BME280;4181;43.416;24.598;2023-12-20T10:03:54;99709.63;;;14.31;100.00
8286;BME280;4181;43.416;24.598;2023-12-20T10:06:22;99706.28;;;14.34;100.00
8286;BME280;4181;43.416;24.598;2023-12-20T10:08:47;99692.91;;;14.27;100.00
8286;BME280;4181;43.416;24.598;2023-12-20T10:11:13;99694.03;;;14.26;100.00
8286;BME280;4181;43.416;24.598;2023-12-20T10:13:40;99678.28;;;13.98;100.00
8286;BME280;4181;43.416;24.598;2023-12-20T10:16:09;99671.00;;;13.78;100.00
8286;BME280;4181;43.416;24.598;2023-12-20T10:18:34;99672.47;;;13.61;100.00
8286;BME280;4181;43.416;24.598;2023-12-20T10:21:01;99660.31;;;13.72;100.00
8286;BME280;4181;43.416;24.598;2023-12-20T10:23:26;99652.47;;;13.99;100.00
8286;BME280;4181;43.416;24.598;2023-12-20T10:25:59;99645.13;;;13.94;100.00
8286;BME280;4181;43.416;24.598;2023-12-20T10:28:25;99637.81;;;13.80;100.00
8286;BME280;4181;43.416;24.598;2023-12-20T10:30:54;99643.56;;;13.83;100.00
8286;BME280;4181;43.416;24.598;2023-12-20T10:33:30;99633.91;;;13.91;100.00
8286;BME280;4181;43.416;24.598;2023-12-20T10:35:57;99622.06;;;13.95;100.00
8286;BME280;4181;43.416;24.598;2023-12-20T10:38:23;99621.44;;;14.09;100.00
8286;BME280;4181;43.416;24.598;2023-12-20T10:40:54;99622.66;;;14.26;100.00
8286;BME280;4181;43.416;24.598;2023-12-20T10:43:22;99614.69;;;14.30;100.00
8286;BME280;4181;43.416;24.598;2023-12-20T10:45:48;99617.63;;;14.38;100.00
8286;BME280;4181;43.416;24.598;2023-12-20T10:48:15;99611.44;;;14.80;100.00
8286;BME280;4181;43.416;24.598;2023-12-20T10:50:41;99596.81;;;15.08;100.00
8286;BME280;4181;43.416;24.598;2023-12-20T10:53:07;99602.72;;;15.20;100.00
8286;BME280;4181;43.416;24.598;2023-12-20T10:55:33;99607.09;;;15.21;100.00
8286;BME280;4181;43.416;24.598;2023-12-20T10:58:07;99598.13;;;15.34;100.00
8286;BME280;4181;43.416;24.598;2023-12-20T11:00:35;99593.13;;;15.41;100.00
8286;BME280;4181;43.416;24.598;2023-12-20T11:03:05;99582.06;;;15.65;100.00
8286;BME280;4181;43.416;24.598;2023-12-20T11:05:57;99578.69;;;15.86;100.00
8286;BME280;4181;43.416;24.598;2023-12-20T11:11:08;99574.28;;;16.04;100.00
8286;BME280;4181;43.416;24.598;2023-12-20T11:13:44;99569.16;;;15.97;100.00
8286;BME280;4181;43.416;24.598;2023-12-20T11:16:13;99568.97;;;15.94;100.00
8286;BME280;4181;43.416;24.598;2023-12-20T11:18:42;99574.66;;;15.97;100.00
8286;BME280;4181;43.416;24.598;2023-12-20T11:21:07;99580.06;;;15.70;100.00
8286;BME280;4181;43.416;24.598;2023-12-20T11:23:33;99576.19;;;15.71;100.00
8286;BME280;4181;43.416;24.598;2023-12-20T11:25:59;99567.28;;;15.42;100.00
8286;BME280;4181;43.416;24.598;2023-12-20T11:28:27;99555.16;;;15.43;100.00
8286;BME280;4181;43.416;24.598;2023-12-20T11:30:53;99572.53;;;15.57;100.00
8286;BME280;4181;43.416;24.598;2023-12-20T11:33:23;99565.25;;;15.85;100.00
8286;BME280;4181;43.416;24.598;2023-12-20T11:35:49;99560.13;;;15.78;100.00
8286;BME280;4181;43.416;24.598;2023-12-20T11:38:15;99565.56;;;15.65;100.00
8286;BME280;4181;43.416;24.598;2023-12-20T11:40:44;99548.81;;;15.61;100.00
8286;BME280;4181;43.416;24.598;2023-12-20T11:43:09;99558.91;;;15.84;100.00
8286;BME280;4181;43.416;24.598;2023-12-20T11:45:35;99546.34;;;15.97;100.00
8286;BME280;4181;43.416;24.598;2023-12-20T11:48:04;99545.34;;;16.06;100.00
8286;BME280;4181;43.416;24.598;2023-12-20T11:50:29;99541.03;;;15.68;100.00
8286;BME280;4181;43.416;24.598;2023-12-20T11:52:56;99528.56;;;15.89;100.00
8286;BME280;4181;43.416;24.598;2023-12-20T11:55:22;99532.63;;;15.78;100.00
8286;BME280;4181;43.416;24.598;2023-12-20T11:57:50;99539.03;;;15.55;100.00
8286;BME280;4181;43.416;24.598;2023-12-20T12:00:16;99520.13;;;15.67;100.00
8286;BME280;4181;43.416;24.598;2023-12-20T12:02:42;99518.50;;;15.66;100.00
8286;BME280;4181;43.416;24.598;2023-12-20T12:05:07;99510.66;;;15.41;100.00
8286;BME280;4181;43.416;24.598;2023-12-20T12:07:34;99517.38;;;15.30;100.00
8286;BME280;4181;43.416;24.598;2023-12-20T12:10:01;99511.50;;;15.18;100.00
8286;BME280;4181;43.416;24.598;2023-12-20T12:12:29;99510.22;;;15.10;100.00
8286;BME280;4181;43.416;24.598;2023-12-20T12:14:55;99505.34;;;15.26;100.00
8286;BME280;4181;43.416;24.598;2023-12-20T12:17:22;99497.28;;;15.53;100.00
8286;BME280;4181;43.416;24.598;2023-12-20T12:19:48;99503.78;;;15.57;100.00
8286;BME280;4181;43.416;24.598;2023-12-20T12:22:14;99487.25;;;15.76;100.00
8286;BME280;4181;43.416;24.598;2023-12-20T12:24:42;99474.13;;;15.73;100.00
8286;BME280;4181;43.416;24.598;2023-12-20T12:27:08;99469.16;;;15.56;100.00
8286;BME280;4181;43.416;24.598;2023-12-20T12:29:35;99471.84;;;15.24;100.00
8286;BME280;4181;43.416;24.598;2023-12-20T12:32:05;99478.97;;;15.25;100.00
8286;BME280;4181;43.416;24.598;2023-12-20T12:34:31;99473.19;;;15.27;100.00
8286;BME280;4181;43.416;24.598;2023-12-20T12:36:56;99472.72;;;15.38;100.00
8286;BME280;4181;43.416;24.598;2023-12-20T12:39:23;99469.56;;;15.50;100.00
8286;BME280;4181;43.416;24.598;2023-12-20T12:41:50;99473.13;;;15.50;100.00
8286;BME280;4181;43.416;24.598;2023-12-20T12:44:16;99459.28;;;15.55;100.00
8286;BME280;4181;43.416;24.598;2023-12-20T12:46:43;99457.88;;;15.39;100.00
8286;BME280;4181;43.416;24.598;2023-12-20T12:49:08;99451.31;;;15.40;100.00
8286;BME280;4181;43.416;24.598;2023-12-20T12:51:34;99451.28;;;15.21;100.00
8286;BME280;4181;43.416;24.598;2023-12-20T12:53:59;99448.91;;;15.15;100.00
8286;BME280;4181;43.416;24.598;2023-12-20T12:56:25;99439.75;;;15.01;100.00
8286;BME280;4181;43.416;24.598;2023-12-20T12:58:51;99443.94;;;15.17;100.00